createdAt,value
2022-08-02T00:01:14.477Z,98.97
2022-08-02T00:02:18.385Z,98.56
2022-08-02T00:03:24.432Z,98.83
2022-08-02T00:04:28.364Z,98.88
2022-08-02T00:05:32.901Z,98.72
2022-08-02T00:06:38.398Z,98.98
2022-08-02T00:07:43.568Z,99.53
2022-08-02T00:08:49.619Z,99.72
2022-08-02T00:09:54.303Z,99.70
2022-08-02T00:10:58.266Z,99.58
2022-08-02T00:12:02.729Z,99.69
2022-08-02T00:14:52.993Z,99.94
2022-08-02T00:15:56.653Z,99.82
2022-08-02T00:17:01.221Z,99.75
2022-08-02T00:18:04.852Z,99.70
2022-08-02T00:19:09.309Z,99.30
2022-08-02T00:20:13.152Z,99.66
2022-08-02T00:21:18.717Z,99.38
2022-08-02T00:22:24.220Z,99.16
2022-08-02T00:23:28.892Z,99.25
2022-08-02T00:24:32.558Z,99.45
2022-08-02T00:25:37.192Z,99.90
2022-08-02T00:27:00.038Z,99.45
2022-08-02T00:28:04.618Z,99.84
2022-08-02T00:29:08.398Z,99.48
2022-08-02T00:30:14.018Z,99.41
2022-08-02T00:31:18.575Z,99.42
2022-08-02T00:32:24.370Z,99.32
2022-08-02T00:34:27.735Z,98.86
2022-08-02T00:34:52.896Z,99.19
2022-08-02T00:35:56.736Z,98.51
2022-08-02T00:37:03.841Z,98.22
2022-08-02T00:38:09.014Z,97.72
2022-08-02T00:39:35.299Z,97.61
2022-08-02T00:40:38.434Z,97.53
2022-08-02T00:41:46.933Z,97.27
2022-08-02T00:43:04.541Z,97.19
2022-08-02T00:44:08.320Z,97.43
2022-08-02T00:45:13.187Z,97.71
2022-08-02T00:46:17.416Z,97.95
2022-08-02T00:47:23.117Z,98.22
2022-08-02T00:48:26.765Z,98.07
2022-08-02T00:49:32.929Z,98.06
2022-08-02T00:50:40.933Z,98.20
2022-08-02T00:51:45.682Z,98.50
2022-08-02T00:52:49.893Z,99.27
2022-08-02T00:53:57.561Z,99.68
2022-08-02T00:55:01.310Z,99.74
2022-08-02T00:56:06.630Z,99.70
2022-08-02T00:57:10.463Z,99.74
2022-08-02T00:58:15.430Z,100.00
2022-08-02T00:59:27.681Z,100.00
2022-08-02T01:00:34.316Z,100.00
2022-08-02T01:01:56.261Z,100.00
2022-08-02T01:03:02.293Z,100.00
2022-08-02T01:04:06.743Z,100.00
2022-08-02T01:05:11.753Z,100.00
2022-08-02T01:06:15.073Z,100.00
2022-08-02T01:07:20.119Z,100.00
2022-08-02T01:08:29.395Z,100.00
2022-08-02T01:09:38.302Z,100.00
2022-08-02T01:10:42.335Z,100.00
2022-08-02T01:11:47.070Z,100.00
2022-08-02T01:12:50.883Z,100.00
2022-08-02T01:13:55.774Z,100.00
2022-08-02T01:15:01.653Z,100.00
2022-08-02T01:16:11.600Z,100.00
2022-08-02T01:17:22.890Z,100.00
2022-08-02T01:18:32.285Z,100.00
2022-08-02T01:19:40.762Z,100.00
2022-08-02T01:21:29.668Z,100.00
2022-08-02T01:23:02.086Z,100.00
2022-08-02T01:24:21.463Z,100.00
2022-08-02T01:25:54.770Z,100.00
2022-08-02T01:27:07.318Z,100.00
2022-08-02T01:28:30.494Z,100.00
2022-08-02T01:29:37.002Z,100.00
2022-08-02T01:30:42.241Z,100.00
2022-08-02T01:31:52.513Z,100.00
2022-08-02T01:32:59.820Z,100.00
2022-08-02T01:34:08.211Z,100.00
2022-08-02T01:35:15.652Z,100.00
2022-08-02T01:36:20.951Z,100.00
2022-08-02T01:37:28.525Z,100.00
2022-08-02T01:38:35.693Z,100.00
2022-08-02T01:39:42.565Z,100.00
2022-08-02T01:40:46.341Z,100.00
2022-08-02T01:41:51.902Z,100.00
2022-08-02T01:43:01.834Z,100.00
2022-08-02T01:44:12.813Z,100.00
2022-08-02T01:45:17.066Z,100.00
2022-08-02T01:46:22.472Z,100.00
2022-08-02T01:47:30.844Z,100.00
2022-08-02T01:48:37.040Z,100.00
2022-08-02T01:49:41.011Z,100.00
2022-08-02T01:50:46.540Z,100.00
2022-08-02T01:52:11.567Z,100.00
2022-08-02T01:53:17.734Z,100.00
2022-08-02T01:56:58.353Z,100.00
2022-08-02T01:58:05.151Z,100.00
2022-08-02T01:59:21.006Z,100.00
2022-08-02T02:00:27.743Z,100.00
2022-08-02T02:01:34.286Z,100.00
2022-08-02T02:02:42.083Z,100.00
2022-08-02T02:03:48.191Z,100.00
2022-08-02T02:04:53.064Z,100.00
2022-08-02T02:05:59.136Z,100.00
2022-08-02T02:07:03.580Z,100.00
2022-08-02T02:08:09.462Z,100.00
2022-08-02T02:09:13.962Z,100.00
2022-08-02T02:10:21.392Z,100.00
2022-08-02T02:12:09.399Z,100.00
2022-08-02T02:12:52.218Z,100.00
2022-08-02T02:13:56.578Z,100.00
2022-08-02T02:15:04.330Z,100.00
2022-08-02T02:16:08.352Z,100.00
2022-08-02T02:17:57.216Z,100.00
2022-08-02T02:18:41.007Z,100.00
2022-08-02T02:19:48.841Z,100.00
2022-08-02T02:20:52.632Z,100.00
2022-08-02T02:21:57.446Z,100.00
2022-08-02T02:23:01.086Z,100.00
2022-08-02T02:24:09.090Z,100.00
2022-08-02T02:25:34.286Z,100.00
2022-08-02T02:26:52.116Z,100.00
2022-08-02T02:28:00.965Z,100.00
2022-08-02T02:29:06.548Z,100.00
2022-08-02T02:30:12.871Z,100.00
2022-08-02T02:31:19.622Z,100.00
2022-08-02T02:32:23.722Z,100.00
2022-08-02T02:33:29.561Z,100.00
2022-08-02T02:35:01.726Z,100.00
2022-08-02T02:36:26.113Z,100.00
2022-08-02T02:37:33.074Z,100.00
2022-08-02T02:38:37.478Z,100.00
2022-08-02T02:39:42.416Z,100.00
2022-08-02T02:40:47.511Z,100.00
2022-08-02T02:41:53.546Z,100.00
2022-08-02T02:42:59.252Z,100.00
2022-08-02T02:44:04.191Z,100.00
2022-08-02T02:45:10.295Z,100.00
2022-08-02T02:46:17.343Z,100.00
2022-08-02T02:47:20.942Z,100.00
2022-08-02T02:48:26.968Z,100.00
2022-08-02T02:49:58.739Z,100.00
2022-08-02T02:51:06.174Z,100.00
2022-08-02T02:54:30.250Z,100.00
2022-08-02T02:56:02.085Z,100.00
2022-08-02T02:57:24.131Z,100.00
2022-08-02T02:58:31.696Z,100.00
2022-08-02T02:59:45.364Z,100.00
2022-08-02T03:01:11.870Z,100.00
2022-08-02T03:02:18.112Z,100.00
2022-08-02T03:03:22.292Z,100.00
2022-08-02T03:04:55.162Z,100.00
2022-08-02T03:05:54.714Z,100.00
2022-08-02T03:07:31.174Z,100.00
2022-08-02T03:08:35.054Z,100.00
2022-08-02T03:09:41.651Z,100.00
2022-08-02T03:10:45.698Z,100.00
2022-08-02T03:11:50.585Z,100.00
2022-08-02T03:12:58.445Z,100.00
2022-08-02T03:14:04.537Z,100.00
2022-08-02T03:15:09.771Z,100.00
2022-08-02T03:16:14.963Z,100.00
2022-08-02T03:17:20.486Z,100.00
2022-08-02T03:18:36.659Z,100.00
2022-08-02T03:19:41.602Z,100.00
2022-08-02T03:20:46.417Z,100.00
2022-08-02T03:21:57.372Z,100.00
2022-08-02T03:23:02.841Z,100.00
2022-08-02T03:24:07.391Z,100.00
2022-08-02T03:25:12.963Z,100.00
2022-08-02T03:26:17.623Z,100.00
2022-08-02T03:27:25.465Z,100.00
2022-08-02T03:28:29.642Z,100.00
2022-08-02T03:29:37.021Z,100.00
2022-08-02T03:30:43.868Z,100.00
2022-08-02T03:31:57.535Z,100.00
2022-08-02T03:33:02.901Z,100.00
2022-08-02T03:34:07.802Z,100.00
2022-08-02T03:35:13.231Z,100.00
2022-08-02T03:36:20.989Z,100.00
2022-08-02T03:37:25.325Z,100.00
2022-08-02T03:38:30.827Z,100.00
2022-08-02T03:39:34.741Z,100.00
2022-08-02T03:40:39.945Z,100.00
2022-08-02T03:41:48.674Z,100.00
2022-08-02T03:42:53.987Z,100.00
2022-08-02T03:43:58.254Z,100.00
2022-08-02T03:45:08.211Z,100.00
2022-08-02T03:46:14.900Z,100.00
2022-08-02T03:47:19.866Z,100.00
2022-08-02T03:48:34.095Z,100.00
2022-08-02T03:49:41.513Z,100.00
2022-08-02T03:50:49.288Z,100.00
2022-08-02T03:51:57.217Z,100.00
2022-08-02T03:53:26.378Z,100.00
2022-08-02T03:54:34.829Z,100.00
2022-08-02T03:55:50.901Z,100.00
2022-08-02T03:56:55.051Z,100.00
2022-08-02T03:57:59.892Z,100.00
2022-08-02T03:59:15.123Z,100.00
2022-08-02T04:00:21.740Z,100.00
2022-08-02T04:01:29.693Z,100.00
2022-08-02T04:02:32.993Z,100.00
2022-08-02T04:03:38.919Z,100.00
2022-08-02T04:04:42.509Z,100.00
2022-08-02T04:06:28.371Z,100.00
2022-08-02T04:08:33.447Z,100.00
2022-08-02T04:08:58.510Z,100.00
2022-08-02T04:10:02.131Z,100.00
2022-08-02T04:11:24.621Z,100.00
2022-08-02T04:12:36.891Z,100.00
2022-08-02T04:13:42.173Z,100.00
2022-08-02T04:14:47.232Z,100.00
2022-08-02T04:15:55.023Z,100.00
2022-08-02T04:17:04.730Z,100.00
2022-08-02T04:18:08.456Z,100.00
2022-08-02T04:19:19.010Z,100.00
2022-08-02T04:20:23.854Z,100.00
2022-08-02T04:21:48.551Z,100.00
2022-08-02T04:23:02.500Z,100.00
2022-08-02T04:24:08.395Z,100.00
2022-08-02T04:25:17.548Z,100.00
2022-08-02T04:26:27.524Z,100.00
2022-08-02T04:27:51.322Z,100.00
2022-08-02T04:28:57.477Z,100.00
2022-08-02T04:30:02.184Z,100.00
2022-08-02T04:31:05.898Z,100.00
2022-08-02T04:32:10.718Z,100.00
2022-08-02T04:33:14.295Z,100.00
2022-08-02T04:34:19.916Z,100.00
2022-08-02T04:35:23.333Z,100.00
2022-08-02T04:36:30.851Z,100.00
2022-08-02T04:37:35.237Z,100.00
2022-08-02T04:38:39.733Z,100.00
2022-08-02T04:39:43.212Z,100.00
2022-08-02T04:40:57.367Z,100.00
2022-08-02T04:42:00.497Z,100.00
2022-08-02T04:43:04.706Z,100.00
2022-08-02T04:44:08.036Z,100.00
2022-08-02T04:45:16.599Z,100.00
2022-08-02T04:46:21.772Z,100.00
2022-08-02T04:47:54.181Z,100.00
2022-08-02T04:48:49.958Z,100.00
2022-08-02T04:49:55.092Z,100.00
2022-08-02T04:50:59.427Z,100.00
2022-08-02T04:52:02.605Z,100.00
2022-08-02T04:53:06.998Z,100.00
2022-08-02T04:54:12.905Z,100.00
2022-08-02T04:55:18.539Z,100.00
2022-08-02T04:56:27.092Z,100.00
2022-08-02T04:57:53.211Z,100.00
2022-08-02T04:59:01.287Z,100.00
2022-08-02T05:00:24.815Z,100.00
2022-08-02T05:01:39.661Z,100.00
2022-08-02T05:02:43.122Z,100.00
2022-08-02T05:03:53.841Z,100.00
2022-08-02T05:05:10.052Z,100.00
2022-08-02T05:06:21.843Z,100.00
2022-08-02T05:07:25.701Z,100.00
2022-08-02T05:08:30.263Z,100.00
2022-08-02T05:09:33.714Z,100.00
2022-08-02T05:10:38.085Z,100.00
2022-08-02T05:11:41.351Z,100.00
2022-08-02T05:12:45.692Z,100.00
2022-08-02T05:13:58.833Z,100.00
2022-08-02T05:15:03.961Z,100.00
2022-08-02T05:16:08.711Z,100.00
2022-08-02T05:17:12.280Z,100.00
2022-08-02T05:18:16.539Z,100.00
2022-08-02T05:19:20.673Z,100.00
2022-08-02T05:20:26.694Z,100.00
2022-08-02T05:21:30.085Z,100.00
2022-08-02T05:22:34.676Z,100.00
2022-08-02T05:23:38.976Z,100.00
2022-08-02T05:24:42.730Z,100.00
2022-08-02T05:25:49.801Z,100.00
2022-08-02T05:26:54.675Z,99.58
2022-08-02T05:27:59.122Z,99.42
2022-08-02T05:29:03.463Z,99.33
2022-08-02T05:30:09.525Z,98.75
2022-08-02T05:31:13.941Z,98.71
2022-08-02T05:32:17.185Z,98.93
2022-08-02T05:33:21.694Z,98.81
2022-08-02T05:34:24.894Z,98.86
2022-08-02T05:35:30.842Z,98.70
2022-08-02T05:36:35.530Z,98.32
2022-08-02T05:37:46.763Z,98.28
2022-08-02T05:38:51.503Z,98.12
2022-08-02T05:39:56.422Z,97.82
2022-08-02T05:41:01.021Z,97.71
2022-08-02T05:42:04.803Z,97.67
2022-08-02T05:43:13.833Z,97.72
2022-08-02T05:44:17.289Z,97.45
2022-08-02T05:45:21.868Z,97.26
2022-08-02T05:46:26.594Z,97.05
2022-08-02T05:47:30.125Z,96.80
2022-08-02T05:48:34.717Z,96.59
2022-08-02T05:49:38.251Z,95.79
2022-08-02T05:50:47.146Z,95.53
2022-08-02T05:52:02.855Z,95.66
2022-08-02T05:53:13.614Z,95.02
2022-08-02T05:54:20.989Z,94.82
2022-08-02T05:55:29.075Z,94.90
2022-08-02T05:56:34.644Z,94.72
2022-08-02T05:57:48.764Z,94.60
2022-08-02T05:58:57.851Z,94.63
2022-08-02T06:00:08.964Z,94.78
2022-08-02T06:01:24.444Z,94.26
2022-08-02T06:02:32.384Z,94.21
2022-08-02T06:03:39.227Z,94.00
2022-08-02T06:04:50.092Z,94.01
2022-08-02T06:06:01.745Z,93.81
2022-08-02T06:07:07.345Z,93.78
2022-08-02T06:08:13.788Z,94.17
2022-08-02T06:09:21.065Z,94.16
2022-08-02T06:10:31.523Z,93.60
2022-08-02T06:11:36.409Z,94.13
2022-08-02T06:12:45.256Z,94.11
2022-08-02T06:13:48.812Z,93.63
2022-08-02T06:14:54.672Z,93.48
2022-08-02T06:15:59.892Z,93.34
2022-08-02T06:17:06.382Z,92.67
2022-08-02T06:18:10.272Z,92.72
2022-08-02T06:19:15.172Z,92.67
2022-08-02T06:20:18.982Z,92.66
2022-08-02T06:22:33.421Z,92.80
2022-08-02T06:22:50.348Z,92.38
2022-08-02T06:23:57.897Z,92.43
2022-08-02T06:25:04.560Z,92.70
2022-08-02T06:26:09.126Z,92.34
2022-08-02T06:27:15.227Z,92.10
2022-08-02T06:28:20.120Z,91.08
2022-08-02T06:29:25.030Z,91.17
2022-08-02T06:30:28.917Z,90.97
2022-08-02T06:31:33.404Z,90.52
2022-08-02T06:32:37.261Z,90.22
2022-08-02T06:33:42.158Z,89.75
2022-08-02T06:34:46.508Z,89.47
2022-08-02T06:35:58.035Z,89.08
2022-08-02T06:37:12.813Z,88.71
2022-08-02T06:38:23.203Z,88.14
2022-08-02T06:39:33.030Z,87.24
2022-08-02T06:40:41.355Z,87.04
2022-08-02T06:41:50.275Z,87.41
2022-08-02T06:43:14.486Z,87.44
2022-08-02T06:44:45.849Z,87.83
2022-08-02T06:45:42.721Z,88.04
2022-08-02T06:47:11.568Z,87.93
2022-08-02T06:48:12.479Z,87.93
2022-08-02T06:49:15.753Z,88.22
2022-08-02T06:50:20.213Z,87.92
2022-08-02T06:51:30.835Z,87.34
2022-08-02T06:52:36.513Z,87.52
2022-08-02T06:53:41.155Z,87.26
2022-08-02T06:54:44.618Z,87.29
2022-08-02T06:55:49.024Z,87.08
2022-08-02T06:56:52.502Z,87.12
2022-08-02T06:57:57.100Z,87.01
2022-08-02T06:59:05.571Z,86.18
2022-08-02T07:00:12.872Z,86.12
2022-08-02T07:01:17.670Z,86.52
2022-08-02T07:02:21.549Z,86.24
2022-08-02T07:03:27.086Z,86.08
2022-08-02T07:04:30.383Z,85.94
2022-08-02T07:05:34.491Z,86.34
2022-08-02T07:06:37.862Z,86.22
2022-08-02T07:07:43.687Z,85.99
2022-08-02T07:09:04.899Z,86.01
2022-08-02T07:10:12.252Z,85.97
2022-08-02T07:11:15.588Z,86.09
2022-08-02T07:12:19.804Z,85.99
2022-08-02T07:13:24.104Z,86.06
2022-08-02T07:14:27.340Z,86.43
2022-08-02T07:15:31.734Z,85.66
2022-08-02T07:16:35.004Z,85.03
2022-08-02T07:17:39.070Z,84.37
2022-08-02T07:18:42.312Z,84.17
2022-08-02T07:19:46.823Z,83.79
2022-08-02T07:20:50.028Z,83.40
2022-08-02T07:21:59.266Z,83.43
2022-08-02T07:23:09.764Z,82.83
2022-08-02T07:24:13.987Z,82.99
2022-08-02T07:25:18.577Z,83.43
2022-08-02T07:26:21.876Z,83.58
2022-08-02T07:27:26.595Z,83.54
2022-08-02T07:28:30.753Z,83.52
2022-08-02T07:29:45.901Z,83.52
2022-08-02T07:30:51.166Z,83.27
2022-08-02T07:31:54.532Z,83.28
2022-08-02T07:32:58.753Z,83.47
2022-08-02T07:34:01.975Z,83.61
2022-08-02T07:35:07.873Z,82.72
2022-08-02T07:36:16.980Z,82.39
2022-08-02T07:37:53.194Z,81.94
2022-08-02T07:38:55.173Z,81.41
2022-08-02T07:39:58.505Z,80.68
2022-08-02T07:41:03.575Z,80.13
2022-08-02T07:42:07.275Z,79.72
2022-08-02T07:43:11.599Z,79.46
2022-08-02T07:44:15.761Z,79.30
2022-08-02T07:45:19.969Z,79.05
2022-08-02T07:46:23.378Z,79.14
2022-08-02T07:47:27.736Z,78.30
2022-08-02T07:48:31.003Z,78.13
2022-08-02T07:49:35.251Z,77.69
2022-08-02T07:50:39.673Z,78.23
2022-08-02T07:51:43.039Z,78.61
2022-08-02T07:52:50.132Z,79.09
2022-08-02T07:54:02.721Z,78.57
2022-08-02T07:55:09.809Z,78.20
2022-08-02T07:56:14.093Z,77.95
2022-08-02T07:57:18.352Z,77.57
2022-08-02T07:58:21.816Z,77.29
2022-08-02T07:59:26.046Z,77.10
2022-08-02T08:00:30.753Z,76.89
2022-08-02T08:01:34.571Z,76.17
2022-08-02T08:02:40.618Z,76.24
2022-08-02T08:03:44.172Z,76.07
2022-08-02T08:04:48.287Z,75.83
2022-08-02T08:05:54.620Z,75.95
2022-08-02T08:06:57.760Z,75.80
2022-08-02T08:08:01.993Z,75.84
2022-08-02T08:09:07.707Z,76.08
2022-08-02T08:10:11.352Z,76.24
2022-08-02T08:11:15.770Z,76.34
2022-08-02T08:12:20.204Z,76.49
2022-08-02T08:13:24.915Z,76.05
2022-08-02T08:14:28.101Z,75.31
2022-08-02T08:15:32.398Z,74.28
2022-08-02T08:16:36.853Z,74.36
2022-08-02T08:17:40.094Z,73.54
2022-08-02T08:18:44.758Z,73.40
2022-08-02T08:19:50.833Z,73.51
2022-08-02T08:20:56.981Z,73.38
2022-08-02T08:22:00.968Z,73.51
2022-08-02T08:23:05.262Z,72.83
2022-08-02T08:24:11.152Z,73.03
2022-08-02T08:25:14.545Z,72.48
2022-08-02T08:26:19.056Z,72.76
2022-08-02T08:27:23.403Z,73.07
2022-08-02T08:28:27.768Z,72.56
2022-08-02T08:29:31.814Z,72.44
2022-08-02T08:30:34.973Z,71.78
2022-08-02T08:31:39.453Z,71.84
2022-08-02T08:32:42.773Z,71.91
2022-08-02T08:33:47.172Z,71.24
2022-08-02T08:34:51.534Z,71.16
2022-08-02T08:35:56.372Z,70.56
2022-08-02T08:36:59.444Z,71.12
2022-08-02T08:38:07.505Z,70.28
2022-08-02T08:39:13.423Z,69.93
2022-08-02T08:40:19.620Z,69.82
2022-08-02T08:41:24.155Z,70.06
2022-08-02T08:42:27.479Z,70.38
2022-08-02T08:43:31.691Z,71.20
2022-08-02T08:44:35.473Z,70.60
2022-08-02T08:45:41.470Z,70.62
2022-08-02T08:46:45.203Z,69.85
2022-08-02T08:47:54.041Z,69.41
2022-08-02T08:49:02.842Z,69.66
2022-08-02T08:50:11.596Z,69.05
2022-08-02T08:51:22.953Z,67.65
2022-08-02T08:52:27.974Z,67.77
2022-08-02T08:53:36.484Z,67.11
2022-08-02T08:54:43.716Z,67.41
2022-08-02T08:55:53.360Z,67.48
2022-08-02T08:56:58.369Z,67.43
2022-08-02T08:58:03.071Z,66.93
2022-08-02T08:59:07.446Z,66.28
2022-08-02T09:00:13.205Z,65.57
2022-08-02T09:01:17.886Z,65.97
2022-08-02T09:02:26.035Z,66.04
2022-08-02T09:03:33.883Z,66.28
2022-08-02T09:04:38.901Z,66.48
2022-08-02T09:05:43.561Z,66.08
2022-08-02T09:06:46.651Z,65.41
2022-08-02T09:07:52.186Z,64.77
2022-08-02T09:08:55.449Z,64.78
2022-08-02T09:10:01.333Z,64.63
2022-08-02T09:11:13.503Z,63.22
2022-08-02T09:12:18.347Z,64.46
2022-08-02T09:13:38.502Z,64.04
2022-08-02T09:14:49.942Z,63.96
2022-08-02T09:15:56.357Z,62.96
2022-08-02T09:17:09.617Z,60.04
2022-08-02T09:18:13.458Z,61.63
2022-08-02T09:19:22.547Z,60.62
2022-08-02T09:20:30.437Z,61.06
2022-08-02T09:21:39.246Z,60.65
2022-08-02T09:22:42.653Z,61.16
2022-08-02T09:23:48.676Z,60.72
2022-08-02T09:24:53.584Z,60.34
2022-08-02T09:26:04.518Z,59.83
2022-08-02T09:27:16.332Z,60.43
2022-08-02T09:28:19.431Z,59.48
2022-08-02T09:29:25.953Z,58.47
2022-08-02T09:30:29.828Z,58.30
2022-08-02T09:31:35.872Z,58.28
2022-08-02T09:32:46.843Z,57.07
2022-08-02T09:33:54.763Z,58.04
2022-08-02T09:34:59.282Z,58.65
2022-08-02T09:36:07.184Z,58.57
2022-08-02T09:37:24.385Z,56.68
2022-08-02T09:38:27.745Z,57.55
2022-08-02T09:39:47.607Z,55.97
2022-08-02T09:40:51.061Z,57.81
2022-08-02T09:42:11.043Z,55.84
2022-08-02T09:43:14.719Z,57.49
2022-08-02T09:44:18.821Z,57.55
2022-08-02T09:45:21.899Z,57.33
2022-08-02T09:46:28.467Z,57.57
2022-08-02T09:47:37.539Z,57.51
2022-08-02T09:48:55.042Z,56.43
2022-08-02T09:50:00.089Z,57.92
2022-08-02T09:51:03.455Z,58.43
2022-08-02T09:52:08.291Z,58.24
2022-08-02T09:53:13.333Z,58.34
2022-08-02T09:54:19.753Z,58.42
2022-08-02T09:55:23.172Z,58.73
2022-08-02T09:56:29.455Z,58.47
2022-08-02T09:57:40.237Z,58.95
2022-08-02T09:58:44.514Z,58.79
2022-08-02T09:59:54.823Z,59.22
2022-08-02T10:00:59.383Z,58.92
2022-08-02T10:02:17.609Z,58.59
2022-08-02T10:03:23.123Z,58.62
2022-08-02T10:04:53.163Z,58.42
2022-08-02T10:06:03.030Z,58.69
2022-08-02T10:07:06.863Z,59.12
2022-08-02T10:08:11.241Z,59.00
2022-08-02T10:09:17.002Z,58.92
2022-08-02T10:10:20.236Z,58.98
2022-08-02T10:11:30.700Z,58.56
2022-08-02T10:12:37.303Z,58.69
2022-08-02T10:13:42.117Z,58.74
2022-08-02T10:14:47.064Z,58.90
2022-08-02T10:15:50.824Z,58.96
2022-08-02T10:16:55.410Z,59.10
2022-08-02T10:17:58.951Z,59.63
2022-08-02T10:19:04.852Z,59.65
2022-08-02T10:20:10.243Z,59.00
2022-08-02T10:21:15.799Z,59.72
2022-08-02T10:22:20.653Z,59.77
2022-08-02T10:23:26.860Z,59.78
2022-08-02T10:24:33.793Z,59.63
2022-08-02T10:25:37.630Z,59.44
2022-08-02T10:26:45.365Z,59.13
2022-08-02T10:28:04.654Z,59.34
2022-08-02T10:29:12.716Z,59.27
2022-08-02T10:30:16.134Z,59.60
2022-08-02T10:31:24.024Z,58.96
2022-08-02T10:32:32.610Z,58.76
2022-08-02T10:33:36.798Z,58.29
2022-08-02T10:34:51.124Z,58.35
2022-08-02T10:36:04.486Z,57.94
2022-08-02T10:37:14.807Z,58.03
2022-08-02T10:38:20.172Z,58.29
2022-08-02T10:39:24.366Z,58.63
2022-08-02T10:40:44.523Z,57.90
2022-08-02T10:41:50.621Z,58.15
2022-08-02T10:42:56.225Z,58.18
2022-08-02T10:44:00.771Z,57.33
2022-08-02T10:45:15.283Z,56.51
2022-08-02T10:46:23.542Z,55.87
2022-08-02T10:47:28.081Z,55.96
2022-08-02T10:48:31.202Z,55.62
2022-08-02T10:49:50.047Z,55.58
2022-08-02T10:50:54.292Z,56.33
2022-08-02T10:52:09.682Z,56.21
2022-08-02T10:53:27.854Z,56.59
2022-08-02T10:54:35.433Z,56.92
2022-08-02T10:55:46.919Z,56.96
2022-08-02T10:56:52.850Z,57.15
2022-08-02T10:58:18.721Z,57.17
2022-08-02T10:59:26.750Z,57.54
2022-08-02T11:00:32.466Z,57.51
2022-08-02T11:01:44.641Z,57.37
2022-08-02T11:02:53.585Z,57.70
2022-08-02T11:03:59.882Z,58.01
2022-08-02T11:05:15.717Z,58.29
2022-08-02T11:06:25.674Z,57.95
2022-08-02T11:07:34.057Z,57.70
2022-08-02T11:08:40.794Z,57.49
2022-08-02T11:09:45.913Z,57.13
2022-08-02T11:10:50.171Z,56.64
2022-08-02T11:12:01.646Z,56.16
2022-08-02T11:13:11.997Z,56.12
2022-08-02T11:14:15.611Z,56.38
2022-08-02T11:15:20.724Z,56.01
2022-08-02T11:17:05.761Z,55.99
2022-08-02T11:18:10.164Z,56.53
2022-08-02T11:19:13.344Z,55.66
2022-08-02T11:20:19.272Z,55.11
2022-08-02T11:21:23.655Z,55.31
2022-08-02T11:22:28.431Z,54.89
2022-08-02T11:23:44.951Z,54.73
2022-08-02T11:24:50.285Z,55.19
2022-08-02T11:26:11.367Z,55.32
2022-08-02T11:27:21.896Z,55.67
2022-08-02T11:28:26.961Z,55.73
2022-08-02T11:29:38.203Z,55.87
2022-08-02T11:30:43.233Z,56.20
2022-08-02T11:31:48.672Z,56.26
2022-08-02T11:32:53.260Z,55.30
2022-08-02T11:33:56.422Z,56.00
2022-08-02T11:35:00.801Z,55.36
2022-08-02T11:36:05.937Z,55.06
2022-08-02T11:37:10.492Z,54.41
2022-08-02T11:38:16.137Z,54.43
2022-08-02T11:39:21.688Z,53.85
2022-08-02T11:40:24.919Z,54.69
2022-08-02T11:41:46.600Z,53.96
2022-08-02T11:42:53.983Z,53.67
2022-08-02T11:43:58.382Z,52.97
2022-08-02T11:45:02.796Z,52.30
2022-08-02T11:46:06.113Z,51.85
2022-08-02T11:47:12.843Z,51.43
2022-08-02T11:48:16.052Z,51.30
2022-08-02T11:49:20.515Z,50.93
2022-08-02T11:50:30.302Z,50.25
2022-08-02T11:51:35.146Z,49.38
2022-08-02T11:52:38.588Z,48.61
2022-08-02T11:53:44.333Z,48.84
2022-08-02T11:54:51.094Z,48.71
2022-08-02T11:55:57.583Z,48.92
2022-08-02T11:57:20.158Z,47.97
2022-08-02T11:58:24.192Z,49.56
2022-08-02T11:59:28.343Z,49.54
2022-08-02T12:00:31.493Z,49.75
2022-08-02T12:01:46.161Z,48.84
2022-08-02T12:02:52.159Z,48.97
2022-08-02T12:04:01.109Z,49.19
2022-08-02T12:05:08.858Z,48.70
2022-08-02T12:06:16.652Z,48.04
2022-08-02T12:07:34.665Z,47.99
2022-08-02T12:08:39.195Z,47.46
2022-08-02T12:09:43.363Z,47.44
2022-08-02T12:10:48.173Z,47.00
2022-08-02T12:11:52.693Z,46.79
2022-08-02T12:12:58.024Z,46.68
2022-08-02T12:14:02.434Z,47.21
2022-08-02T12:15:10.568Z,46.57
2022-08-02T12:16:34.044Z,46.62
2022-08-02T12:17:55.721Z,47.34
2022-08-02T12:19:18.966Z,47.13
2022-08-02T12:20:23.205Z,46.71
2022-08-02T12:21:27.310Z,46.15
2022-08-02T12:22:31.791Z,45.79
2022-08-02T12:23:59.467Z,44.54
2022-08-02T12:25:33.575Z,43.98
2022-08-02T12:26:46.062Z,45.34
2022-08-02T12:27:53.379Z,45.21
2022-08-02T12:29:01.702Z,44.91
2022-08-02T12:30:08.927Z,44.41
2022-08-02T12:31:14.383Z,44.61
2022-08-02T12:32:26.073Z,44.86
2022-08-02T12:33:32.382Z,46.08
2022-08-02T12:34:38.862Z,46.97
2022-08-02T12:35:43.152Z,47.09
2022-08-02T12:36:59.276Z,45.60
2022-08-02T12:38:11.160Z,45.78
2022-08-02T12:39:14.908Z,45.38
2022-08-02T12:40:25.506Z,44.97
2022-08-02T12:41:32.483Z,45.88
2022-08-02T12:42:48.043Z,45.03
2022-08-02T12:43:53.072Z,44.79
2022-08-02T12:44:58.955Z,44.95
2022-08-02T12:46:03.091Z,45.37
2022-08-02T12:47:09.666Z,44.94
2022-08-02T12:48:14.274Z,45.31
2022-08-02T12:49:19.017Z,45.05
2022-08-02T12:50:27.563Z,45.59
2022-08-02T12:51:56.591Z,45.46
2022-08-02T12:53:09.465Z,44.76
2022-08-02T12:54:17.993Z,44.52
2022-08-02T12:55:24.391Z,44.29
2022-08-02T12:56:29.070Z,44.17
2022-08-02T12:57:33.481Z,44.09
2022-08-02T12:58:49.130Z,43.54
2022-08-02T12:59:54.955Z,43.91
2022-08-02T13:01:00.966Z,43.91
2022-08-02T13:02:06.564Z,43.61
2022-08-02T13:04:11.520Z,43.41
2022-08-02T13:04:36.405Z,43.21
2022-08-02T13:05:56.056Z,43.35
2022-08-02T13:07:02.948Z,43.29
2022-08-02T13:08:06.876Z,42.41
2022-08-02T13:09:16.030Z,41.86
2022-08-02T13:10:21.092Z,41.48
2022-08-02T13:11:24.392Z,41.83
2022-08-02T13:12:28.531Z,42.02
2022-08-02T13:13:32.620Z,41.74
2022-08-02T13:14:41.918Z,41.85
2022-08-02T13:15:50.776Z,41.92
2022-08-02T13:16:55.463Z,41.23
2022-08-02T13:17:59.417Z,41.52
2022-08-02T13:19:03.520Z,40.82
2022-08-02T13:20:11.315Z,41.39
2022-08-02T13:21:39.973Z,40.62
2022-08-02T13:22:42.757Z,40.56
2022-08-02T13:23:56.540Z,41.10
2022-08-02T13:25:04.891Z,40.16
2022-08-02T13:26:09.611Z,40.55
2022-08-02T13:27:13.002Z,41.10
2022-08-02T13:28:17.380Z,41.90
2022-08-02T13:29:20.593Z,42.41
2022-08-02T13:30:24.903Z,42.40
2022-08-02T13:31:36.687Z,42.49
2022-08-02T13:32:41.123Z,42.83
2022-08-02T13:33:44.506Z,42.70
2022-08-02T13:34:48.991Z,43.03
2022-08-02T13:35:52.365Z,43.39
2022-08-02T13:36:58.343Z,43.51
2022-08-02T13:38:04.599Z,44.27
2022-08-02T13:39:10.771Z,44.57
2022-08-02T13:40:23.000Z,43.91
2022-08-02T13:41:26.382Z,43.89
2022-08-02T13:42:31.933Z,43.77
2022-08-02T13:43:53.553Z,43.86
2022-08-02T13:45:00.223Z,43.75
2022-08-02T13:46:16.395Z,43.57
2022-08-02T13:47:36.357Z,43.59
2022-08-02T13:48:58.015Z,43.55
2022-08-02T13:50:01.545Z,44.37
2022-08-02T13:51:14.860Z,44.38
2022-08-02T13:52:20.620Z,45.28
2022-08-02T13:53:25.056Z,45.84
2022-08-02T13:54:29.145Z,46.29
2022-08-02T13:55:32.341Z,46.46
2022-08-02T13:56:37.642Z,46.89
2022-08-02T13:57:41.415Z,47.49
2022-08-02T13:58:46.062Z,47.99
2022-08-02T13:59:56.539Z,48.22
2022-08-02T14:01:03.291Z,48.50
2022-08-02T14:02:07.226Z,48.77
2022-08-02T14:03:12.221Z,49.40
2022-08-02T14:04:16.651Z,49.44
2022-08-02T14:05:19.684Z,49.26
2022-08-02T14:06:43.561Z,49.39
2022-08-02T14:07:49.247Z,49.65
2022-08-02T14:08:52.570Z,49.74
2022-08-02T14:09:56.717Z,50.10
2022-08-02T14:11:00.121Z,50.40
2022-08-02T14:12:04.710Z,50.39
2022-08-02T14:13:07.861Z,50.43
2022-08-02T14:14:15.888Z,50.91
2022-08-02T14:15:20.506Z,51.13
2022-08-02T14:16:24.864Z,51.34
2022-08-02T14:17:37.330Z,51.31
2022-08-02T14:18:40.508Z,51.67
2022-08-02T14:19:44.811Z,51.82
2022-08-02T14:20:47.871Z,51.92
2022-08-02T14:21:53.070Z,52.43
2022-08-02T14:23:16.526Z,52.14
2022-08-02T14:24:21.471Z,52.81
2022-08-02T14:25:26.276Z,52.29
2022-08-02T14:26:29.331Z,52.53
2022-08-02T14:27:39.274Z,53.03
2022-08-02T14:28:43.831Z,52.61
2022-08-02T14:29:48.453Z,52.33
2022-08-02T14:30:52.835Z,51.93
2022-08-02T14:31:55.921Z,51.82
2022-08-02T14:33:00.234Z,51.74